Bei Facebook empfehlenBei Twitter postenGoogle plusPinterest

Das Wetter im Erzgebirge am 30.09.2016

Wetter und Klima am 30.09.2016 Holzhau im Erzgebirge (630m ü.NN)
Letzte gemessene Temperatur und Uhrzeit der Messung23:45:00 Uhr10.20 °C
Temperatur (Maximum / Höchstwert) und Uhrzeit der Messung13:30:00 Uhr21.40 °C
Temperatur (Minimum / Tiefstwert) und Uhrzeit der Messung23:45:0010.20 °C
Errechneter Absolutwert der Temperaturschwankungen zwischen Tmin und Tmax des Tages11.20 K
Errechnete Tagesmitteltemperatur15.22188 °C
Gesamt - Niederschlag des Tages (in flüssiger Form)0.00 Liter / m²
Luftdruck (Maximum / Höchstwert) und Zeitpunkt der Messung18:30:00 Uhr1013.30 hPa
Luftdruck (Minimum / Tiefstwert) und Zeitpunkt der Messung06:15:00 Uhr1011.20 hPa
Errechneter Absolutwert der Luftdruckschwankungen des Tages2.10 hPa
Höchste gemessene Windgeschwindigkeit und Uhrzeit der Messung23:45:00 Uhr0.00 km/h
Errechnete Windhäufigkeit in Relation zu den Messwerten des Tages0.00000 %
Niedrigste Windkühle (Windchill) und Zeitpunkt der Messung23:45:00 Uhr10.20 °C
Taupunkt (Maximum / Höchstwert) und Uhrzeit der Messung11:15:00 Uhr14.90 °C
Taupunkt (Minimum / Tiefstwert) und Uhrzeit der Messung23:45:008.30 °C
Anzahl der automatisch eingelesenen Messwerte 96

Detaillierte Wetter- und Klima- Messwerte für den 30.09.2016 in Holzhau im Erzgebirge (630m ü.NN)
ZeitTemperaturLuftdruckRel. LuftfeuchteWindWindrichtungWindchillTaupunktNiederschlag l/m²
23:45:0010.20 °C1012.90 hPa88.00 %8.30 °C 
23:30:0010.60 °C1013.00 hPa88.00 %8.70 °C 
23:15:0010.90 °C1013.00 hPa87.00 %8.80 °C 
23:00:0011.10 °C1013.10 hPa87.00 %9.00 °C 
22:45:0011.10 °C1013.10 hPa87.00 %9.00 °C 
22:30:0011.10 °C1013.00 hPa87.00 %9.00 °C 
22:15:0011.00 °C1013.00 hPa86.00 %8.80 °C 
22:00:0011.10 °C1013.10 hPa86.00 %8.80 °C 
21:45:0011.30 °C1013.10 hPa86.00 %9.00 °C 
21:30:0011.30 °C1013.10 hPa86.00 %9.00 °C 
21:15:0011.30 °C1013.10 hPa86.00 %9.00 °C 
21:00:0011.20 °C1013.00 hPa85.00 %8.80 °C 
20:45:0011.10 °C1013.10 hPa84.00 %8.50 °C 
20:30:0011.00 °C1012.90 hPa84.00 %8.40 °C 
20:15:0011.10 °C1012.90 hPa83.00 %8.30 °C 
20:00:0011.40 °C1013.00 hPa83.00 %8.60 °C 
19:45:0011.90 °C1013.10 hPa82.00 %8.90 °C 
19:30:0012.30 °C1013.20 hPa82.00 %9.30 °C 
19:15:0012.70 °C1013.20 hPa81.00 %9.50 °C 
19:00:0012.90 °C1013.20 hPa81.00 %9.70 °C 
18:45:0013.10 °C1013.10 hPa81.00 %9.90 °C 
18:30:0013.40 °C1013.30 hPa80.00 %10.00 °C 
18:15:0013.70 °C1013.20 hPa79.00 %10.10 °C 
18:00:0014.10 °C1013.00 hPa78.00 %10.30 °C 
17:45:0014.80 °C1013.00 hPa76.00 %10.60 °C 
17:30:0015.60 °C1012.80 hPa74.00 %11.00 °C 
17:15:0016.80 °C1012.70 hPa72.00 %11.70 °C 
17:00:0018.10 °C1012.40 hPa69.00 %12.30 °C 
16:45:0018.20 °C1012.30 hPa68.00 %12.20 °C 
16:30:0018.40 °C1012.20 hPa67.00 %12.20 °C 
16:15:0018.70 °C1012.10 hPa66.00 %12.20 °C 
16:00:0019.10 °C1012.20 hPa64.00 %12.10 °C 
15:45:0019.50 °C1012.10 hPa63.00 %12.30 °C 
15:30:0019.80 °C1012.30 hPa62.00 %12.30 °C 
15:15:0020.20 °C1012.20 hPa61.00 %12.40 °C 
15:00:0020.40 °C1012.20 hPa61.00 %12.60 °C 
14:45:0020.50 °C1012.30 hPa59.00 %12.20 °C 
14:30:0020.80 °C1012.30 hPa59.00 %12.50 °C 
14:15:0020.90 °C1012.30 hPa61.00 %13.10 °C 
14:00:0020.90 °C1012.40 hPa61.00 %13.10 °C 
13:45:0020.70 °C1012.40 hPa61.00 %12.90 °C 
13:30:0021.40 °C1012.50 hPa64.00 %14.30 °C 
13:15:0021.10 °C1012.60 hPa66.00 %14.50 °C 
13:00:0020.10 °C1012.70 hPa68.00 %14.00 °C 
12:45:0019.90 °C1012.50 hPa68.00 %13.80 °C 
12:30:0020.50 °C1012.70 hPa67.00 %14.20 °C 
12:15:0020.90 °C1012.50 hPa68.00 %14.80 °C 
12:00:0020.10 °C1012.50 hPa71.00 %14.70 °C 
11:45:0019.30 °C1012.70 hPa72.00 %14.10 °C 
11:30:0019.50 °C1012.60 hPa72.00 %14.30 °C 
11:15:0019.40 °C1012.50 hPa75.00 %14.90 °C 
11:00:0018.80 °C1013.00 hPa77.00 %14.70 °C 
10:45:0017.90 °C1012.70 hPa78.00 %14.00 °C 
10:30:0017.40 °C1013.10 hPa78.00 %13.50 °C 
10:15:0017.40 °C1012.90 hPa79.00 %13.70 °C 
10:00:0017.00 °C1012.70 hPa80.00 %13.50 °C 
09:45:0016.40 °C1012.60 hPa80.00 %12.90 °C 
09:30:0016.50 °C1012.80 hPa81.00 %13.20 °C 
09:15:0016.00 °C1012.50 hPa83.00 %13.10 °C 
09:00:0014.90 °C1012.40 hPa84.00 %12.20 °C 
08:45:0014.40 °C1012.50 hPa85.00 %11.90 °C 
08:30:0014.30 °C1012.40 hPa85.00 %11.80 °C 
08:15:0013.80 °C1012.40 hPa86.00 %11.50 °C 
08:00:0012.90 °C1012.10 hPa87.00 %10.80 °C 
07:45:0011.80 °C1012.10 hPa86.00 %9.50 °C 
07:30:0011.30 °C1011.80 hPa85.00 %8.90 °C 
07:15:0011.50 °C1011.80 hPa85.00 %9.10 °C 
07:00:0011.60 °C1011.60 hPa84.00 %9.00 °C 
06:45:0011.60 °C1011.40 hPa83.00 %8.80 °C 
06:30:0012.00 °C1011.30 hPa82.00 %9.00 °C 
06:15:0012.50 °C1011.20 hPa82.00 %9.50 °C 
06:00:0013.00 °C1011.20 hPa81.00 %9.80 °C 
05:45:0013.30 °C1011.20 hPa82.00 %10.30 °C 
05:30:0013.60 °C1011.30 hPa81.00 %10.40 °C 
05:15:0013.70 °C1011.30 hPa81.00 %10.50 °C 
05:00:0013.90 °C1011.30 hPa80.00 %10.50 °C 
04:45:0014.10 °C1011.20 hPa81.00 %10.90 °C 
04:30:0014.10 °C1011.30 hPa80.00 %10.70 °C 
04:15:0014.10 °C1011.20 hPa79.00 %10.50 °C 
04:00:0014.30 °C1011.40 hPa79.00 %10.70 °C 
03:45:0014.40 °C1011.50 hPa78.00 %10.60 °C 
03:30:0014.50 °C1011.60 hPa78.00 %10.70 °C 
03:15:0014.60 °C1011.60 hPa77.00 %10.60 °C 
03:00:0014.70 °C1011.60 hPa77.00 %10.70 °C 
02:45:0014.80 °C1011.60 hPa76.00 %10.60 °C 
02:30:0014.90 °C1011.50 hPa76.00 %10.70 °C 
02:15:0014.90 °C1011.70 hPa75.00 %10.50 °C 
02:00:0015.10 °C1011.70 hPa75.00 %10.70 °C 
01:45:0015.40 °C1011.60 hPa74.00 %10.80 °C 
01:30:0015.30 °C1012.00 hPa74.00 %10.70 °C 
01:15:0015.30 °C1011.90 hPa74.00 %10.70 °C 
01:00:0015.30 °C1011.90 hPa74.00 %10.70 °C 
00:45:0015.30 °C1012.10 hPa74.00 %10.70 °C 
00:30:0015.30 °C1012.10 hPa74.00 %10.70 °C 
00:15:0015.40 °C1012.10 hPa74.00 %10.80 °C 
00:00:0015.50 °C1012.10 hPa75.00 %11.10 °C 

Permanenter Link zu dieser Seite: Wetter im Erzgebirge am 30.09.2016
Performance-Info: Die Erstellung der Seite / Statistik(en) / Tabelle(n) erforderte 5 Datenbankserver-Abfrage(n) und dauerte 123 Millisekunden. (Dieser Messwert ist von der Gesamt-Auslastung des Servers abhängig.)
Erzgebirge - Wetter | Erzgebirge - Wetter (Mobilgeräte) | Komplette Klimadatenbank